sensor_id;sensor_type;location;lat;lon;timestamp;P1;durP1;ratioP1;P2;durP2;ratioP2
52940;SDS011;62001;53.366;6.636;2022-12-17T00:01:16;259.63;;;42.30;;
52940;SDS011;62001;53.366;6.636;2022-12-17T00:04:01;310.23;;;46.03;;
52940;SDS011;62001;53.366;6.636;2022-12-17T00:06:45;195.27;;;38.27;;
52940;SDS011;62001;53.366;6.636;2022-12-17T00:09:29;139.37;;;34.83;;
52940;SDS011;62001;53.366;6.636;2022-12-17T00:12:13;187.23;;;35.57;;
52940;SDS011;62001;53.366;6.636;2022-12-17T00:14:58;209.07;;;36.97;;
52940;SDS011;62001;53.366;6.636;2022-12-17T00:17:42;159.97;;;35.23;;
52940;SDS011;62001;53.366;6.636;2022-12-17T00:20:26;165.17;;;34.37;;
52940;SDS011;62001;53.366;6.636;2022-12-17T00:23:11;164.67;;;36.33;;
52940;SDS011;62001;53.366;6.636;2022-12-17T00:25:55;194.47;;;35.63;;
52940;SDS011;62001;53.366;6.636;2022-12-17T00:28:40;196.33;;;36.13;;
52940;SDS011;62001;53.366;6.636;2022-12-17T00:31:27;200.90;;;34.53;;
52940;SDS011;62001;53.366;6.636;2022-12-17T00:34:13;204.57;;;34.37;;
52940;SDS011;62001;53.366;6.636;2022-12-17T00:36:58;136.73;;;33.03;;
52940;SDS011;62001;53.366;6.636;2022-12-17T00:39:44;181.30;;;35.40;;
52940;SDS011;62001;53.366;6.636;2022-12-17T00:42:28;139.53;;;33.37;;
52940;SDS011;62001;53.366;6.636;2022-12-17T00:45:14;182.13;;;34.00;;
52940;SDS011;62001;53.366;6.636;2022-12-17T00:47:59;228.47;;;38.17;;
52940;SDS011;62001;53.366;6.636;2022-12-17T00:50:43;242.23;;;38.10;;
52940;SDS011;62001;53.366;6.636;2022-12-17T00:53:28;164.40;;;35.87;;
52940;SDS011;62001;53.366;6.636;2022-12-17T00:56:12;160.87;;;38.10;;
52940;SDS011;62001;53.366;6.636;2022-12-17T00:58:56;202.63;;;38.83;;
52940;SDS011;62001;53.366;6.636;2022-12-17T01:01:41;209.07;;;37.97;;
52940;SDS011;62001;53.366;6.636;2022-12-17T01:04:25;177.37;;;37.37;;
52940;SDS011;62001;53.366;6.636;2022-12-17T01:07:09;171.07;;;38.97;;
52940;SDS011;62001;53.366;6.636;2022-12-17T01:09:55;203.17;;;38.97;;
52940;SDS011;62001;53.366;6.636;2022-12-17T01:12:44;160.07;;;40.65;;
52940;SDS011;62001;53.366;6.636;2022-12-17T01:15:32;192.50;;;40.87;;
52940;SDS011;62001;53.366;6.636;2022-12-17T01:21:03;128.30;;;37.90;;
52940;SDS011;62001;53.366;6.636;2022-12-17T01:23:48;133.77;;;37.60;;
52940;SDS011;62001;53.366;6.636;2022-12-17T01:26:32;126.23;;;39.17;;
52940;SDS011;62001;53.366;6.636;2022-12-17T01:29:17;129.83;;;39.33;;
52940;SDS011;62001;53.366;6.636;2022-12-17T01:32:01;129.87;;;40.27;;
52940;SDS011;62001;53.366;6.636;2022-12-17T01:34:46;135.10;;;41.17;;
52940;SDS011;62001;53.366;6.636;2022-12-17T01:37:30;112.20;;;38.47;;
52940;SDS011;62001;53.366;6.636;2022-12-17T01:40:14;111.87;;;39.83;;
52940;SDS011;62001;53.366;6.636;2022-12-17T01:42:59;110.73;;;39.30;;
52940;SDS011;62001;53.366;6.636;2022-12-17T01:45:44;113.50;;;39.80;;
52940;SDS011;62001;53.366;6.636;2022-12-17T01:48:39;116.13;;;41.10;;
52940;SDS011;62001;53.366;6.636;2022-12-17T01:51:26;119.37;;;42.13;;
52940;SDS011;62001;53.366;6.636;2022-12-17T01:54:12;110.20;;;43.03;;
52940;SDS011;62001;53.366;6.636;2022-12-17T01:56:58;103.60;;;43.33;;
52940;SDS011;62001;53.366;6.636;2022-12-17T02:00:17;115.77;;;44.67;;
52940;SDS011;62001;53.366;6.636;2022-12-17T02:02:56;113.37;;;42.13;;
52940;SDS011;62001;53.366;6.636;2022-12-17T02:14:44;127.03;;;40.93;;
52940;SDS011;62001;53.366;6.636;2022-12-17T02:17:37;104.27;;;42.20;;
52940;SDS011;62001;53.366;6.636;2022-12-17T02:20:31;110.13;;;41.53;;
52940;SDS011;62001;53.366;6.636;2022-12-17T02:29:22;96.38;;;38.28;;
52940;SDS011;62001;53.366;6.636;2022-12-17T02:32:09;125.63;;;45.40;;
52940;SDS011;62001;53.366;6.636;2022-12-17T02:34:57;125.03;;;44.50;;
52940;SDS011;62001;53.366;6.636;2022-12-17T02:40:32;123.10;;;43.67;;
52940;SDS011;62001;53.366;6.636;2022-12-17T02:43:19;126.07;;;44.53;;
52940;SDS011;62001;53.366;6.636;2022-12-17T02:46:07;134.47;;;45.57;;
52940;SDS011;62001;53.366;6.636;2022-12-17T02:48:51;133.50;;;46.13;;
52940;SDS011;62001;53.366;6.636;2022-12-17T02:51:36;139.57;;;48.57;;
52940;SDS011;62001;53.366;6.636;2022-12-17T02:54:21;134.77;;;46.30;;
52940;SDS011;62001;53.366;6.636;2022-12-17T02:57:05;148.90;;;49.23;;
52940;SDS011;62001;53.366;6.636;2022-12-17T02:59:49;154.27;;;52.43;;
52940;SDS011;62001;53.366;6.636;2022-12-17T03:02:33;156.13;;;50.70;;
52940;SDS011;62001;53.366;6.636;2022-12-17T03:05:17;154.90;;;52.40;;
52940;SDS011;62001;53.366;6.636;2022-12-17T03:08:05;150.77;;;51.97;;
52940;SDS011;62001;53.366;6.636;2022-12-17T03:10:49;160.00;;;51.63;;
52940;SDS011;62001;53.366;6.636;2022-12-17T03:13:34;150.60;;;48.50;;
52940;SDS011;62001;53.366;6.636;2022-12-17T03:16:18;145.17;;;50.70;;
52940;SDS011;62001;53.366;6.636;2022-12-17T03:19:02;142.23;;;49.73;;
52940;SDS011;62001;53.366;6.636;2022-12-17T03:21:46;142.47;;;49.90;;
52940;SDS011;62001;53.366;6.636;2022-12-17T03:24:31;136.80;;;47.57;;
52940;SDS011;62001;53.366;6.636;2022-12-17T03:27:15;138.10;;;48.80;;
52940;SDS011;62001;53.366;6.636;2022-12-17T03:29:59;145.37;;;49.30;;
52940;SDS011;62001;53.366;6.636;2022-12-17T03:32:43;133.87;;;47.93;;
52940;SDS011;62001;53.366;6.636;2022-12-17T03:35:28;135.47;;;48.00;;
52940;SDS011;62001;53.366;6.636;2022-12-17T03:38:12;121.37;;;46.00;;
52940;SDS011;62001;53.366;6.636;2022-12-17T03:40:57;131.20;;;47.80;;
52940;SDS011;62001;53.366;6.636;2022-12-17T03:43:41;122.50;;;45.73;;
52940;SDS011;62001;53.366;6.636;2022-12-17T03:46:26;115.17;;;45.10;;
52940;SDS011;62001;53.366;6.636;2022-12-17T03:49:15;121.37;;;45.60;;
52940;SDS011;62001;53.366;6.636;2022-12-17T03:51:59;120.13;;;45.43;;
52940;SDS011;62001;53.366;6.636;2022-12-17T03:54:43;121.57;;;45.87;;
52940;SDS011;62001;53.366;6.636;2022-12-17T03:57:27;117.17;;;45.30;;
52940;SDS011;62001;53.366;6.636;2022-12-17T04:00:11;107.33;;;43.63;;
52940;SDS011;62001;53.366;6.636;2022-12-17T04:02:56;108.97;;;46.00;;
52940;SDS011;62001;53.366;6.636;2022-12-17T04:05:40;103.93;;;43.83;;
52940;SDS011;62001;53.366;6.636;2022-12-17T04:08:25;106.47;;;43.73;;
52940;SDS011;62001;53.366;6.636;2022-12-17T04:11:09;100.03;;;42.47;;
52940;SDS011;62001;53.366;6.636;2022-12-17T04:13:53;108.13;;;44.07;;
52940;SDS011;62001;53.366;6.636;2022-12-17T04:16:38;101.80;;;44.80;;
52940;SDS011;62001;53.366;6.636;2022-12-17T04:19:22;105.77;;;45.53;;
52940;SDS011;62001;53.366;6.636;2022-12-17T04:22:06;102.70;;;43.63;;
52940;SDS011;62001;53.366;6.636;2022-12-17T04:24:50;101.43;;;42.43;;
52940;SDS011;62001;53.366;6.636;2022-12-17T04:27:35;95.17;;;42.30;;
52940;SDS011;62001;53.366;6.636;2022-12-17T04:30:19;97.27;;;42.30;;
52940;SDS011;62001;53.366;6.636;2022-12-17T04:33:03;92.87;;;41.83;;
52940;SDS011;62001;53.366;6.636;2022-12-17T04:35:48;97.97;;;44.23;;
52940;SDS011;62001;53.366;6.636;2022-12-17T04:38:32;105.47;;;45.17;;
52940;SDS011;62001;53.366;6.636;2022-12-17T04:41:17;106.80;;;47.10;;
52940;SDS011;62001;53.366;6.636;2022-12-17T04:44:01;100.67;;;45.17;;
52940;SDS011;62001;53.366;6.636;2022-12-17T04:46:46;103.30;;;44.60;;
52940;SDS011;62001;53.366;6.636;2022-12-17T04:49:30;104.80;;;44.87;;
52940;SDS011;62001;53.366;6.636;2022-12-17T04:52:15;105.10;;;44.17;;
52940;SDS011;62001;53.366;6.636;2022-12-17T04:54:59;113.63;;;45.37;;
52940;SDS011;62001;53.366;6.636;2022-12-17T04:57:43;102.83;;;45.13;;
52940;SDS011;62001;53.366;6.636;2022-12-17T05:00:28;104.57;;;42.67;;
52940;SDS011;62001;53.366;6.636;2022-12-17T05:03:12;104.47;;;44.53;;
52940;SDS011;62001;53.366;6.636;2022-12-17T05:05:58;102.17;;;43.47;;
52940;SDS011;62001;53.366;6.636;2022-12-17T05:08:42;102.30;;;44.10;;
52940;SDS011;62001;53.366;6.636;2022-12-17T05:11:27;107.47;;;44.53;;
52940;SDS011;62001;53.366;6.636;2022-12-17T05:14:11;98.27;;;42.40;;
52940;SDS011;62001;53.366;6.636;2022-12-17T05:16:57;99.07;;;44.53;;
52940;SDS011;62001;53.366;6.636;2022-12-17T05:19:41;101.20;;;44.73;;
52940;SDS011;62001;53.366;6.636;2022-12-17T05:22:25;109.23;;;43.63;;
52940;SDS011;62001;53.366;6.636;2022-12-17T05:25:10;105.07;;;45.03;;
52940;SDS011;62001;53.366;6.636;2022-12-17T05:27:54;101.53;;;45.60;;
52940;SDS011;62001;53.366;6.636;2022-12-17T05:30:39;105.23;;;45.33;;
52940;SDS011;62001;53.366;6.636;2022-12-17T05:33:23;106.00;;;45.40;;
52940;SDS011;62001;53.366;6.636;2022-12-17T05:36:08;108.53;;;45.53;;
52940;SDS011;62001;53.366;6.636;2022-12-17T05:38:52;109.67;;;46.70;;
52940;SDS011;62001;53.366;6.636;2022-12-17T05:41:36;115.70;;;48.03;;
52940;SDS011;62001;53.366;6.636;2022-12-17T05:44:20;113.63;;;47.97;;
52940;SDS011;62001;53.366;6.636;2022-12-17T05:47:05;110.73;;;48.07;;
52940;SDS011;62001;53.366;6.636;2022-12-17T05:49:49;115.80;;;47.57;;
52940;SDS011;62001;53.366;6.636;2022-12-17T05:52:33;113.50;;;46.97;;
52940;SDS011;62001;53.366;6.636;2022-12-17T05:55:17;108.80;;;46.73;;
52940;SDS011;62001;53.366;6.636;2022-12-17T05:58:02;120.50;;;50.77;;
52940;SDS011;62001;53.366;6.636;2022-12-17T06:00:48;122.00;;;51.23;;
52940;SDS011;62001;53.366;6.636;2022-12-17T06:03:32;127.70;;;50.43;;
52940;SDS011;62001;53.366;6.636;2022-12-17T06:06:17;116.33;;;48.83;;
52940;SDS011;62001;53.366;6.636;2022-12-17T06:09:01;117.13;;;51.73;;
52940;SDS011;62001;53.366;6.636;2022-12-17T06:11:45;112.80;;;48.17;;
52940;SDS011;62001;53.366;6.636;2022-12-17T06:14:30;120.53;;;51.77;;
52940;SDS011;62001;53.366;6.636;2022-12-17T06:17:14;127.40;;;51.63;;
52940;SDS011;62001;53.366;6.636;2022-12-17T06:19:58;115.37;;;50.07;;
52940;SDS011;62001;53.366;6.636;2022-12-17T06:22:43;110.47;;;49.07;;
52940;SDS011;62001;53.366;6.636;2022-12-17T06:25:32;108.87;;;48.37;;
52940;SDS011;62001;53.366;6.636;2022-12-17T06:28:16;115.20;;;47.30;;
52940;SDS011;62001;53.366;6.636;2022-12-17T06:31:00;118.57;;;48.87;;
52940;SDS011;62001;53.366;6.636;2022-12-17T06:33:45;117.83;;;48.33;;
52940;SDS011;62001;53.366;6.636;2022-12-17T06:36:29;106.10;;;47.73;;
52940;SDS011;62001;53.366;6.636;2022-12-17T06:39:13;112.83;;;49.13;;
52940;SDS011;62001;53.366;6.636;2022-12-17T06:41:57;115.43;;;50.27;;
52940;SDS011;62001;53.366;6.636;2022-12-17T06:44:41;115.97;;;48.90;;
52940;SDS011;62001;53.366;6.636;2022-12-17T06:47:25;113.27;;;47.77;;
52940;SDS011;62001;53.366;6.636;2022-12-17T06:50:09;116.30;;;48.07;;
52940;SDS011;62001;53.366;6.636;2022-12-17T06:53:04;111.47;;;47.27;;
52940;SDS011;62001;53.366;6.636;2022-12-17T06:55:49;105.43;;;47.70;;
52940;SDS011;62001;53.366;6.636;2022-12-17T06:58:34;108.43;;;47.60;;
52940;SDS011;62001;53.366;6.636;2022-12-17T07:01:18;110.60;;;47.37;;
52940;SDS011;62001;53.366;6.636;2022-12-17T07:04:02;101.43;;;47.00;;
52940;SDS011;62001;53.366;6.636;2022-12-17T07:06:47;102.80;;;46.27;;
52940;SDS011;62001;53.366;6.636;2022-12-17T07:09:32;104.87;;;46.03;;
52940;SDS011;62001;53.366;6.636;2022-12-17T07:12:16;104.17;;;46.27;;
52940;SDS011;62001;53.366;6.636;2022-12-17T07:15:00;104.27;;;46.37;;
52940;SDS011;62001;53.366;6.636;2022-12-17T07:17:54;101.37;;;48.00;;
52940;SDS011;62001;53.366;6.636;2022-12-17T07:20:43;108.50;;;47.33;;
52940;SDS011;62001;53.366;6.636;2022-12-17T07:23:28;101.97;;;46.10;;
52940;SDS011;62001;53.366;6.636;2022-12-17T07:26:13;95.70;;;45.20;;
52940;SDS011;62001;53.366;6.636;2022-12-17T07:28:57;104.60;;;46.93;;
52940;SDS011;62001;53.366;6.636;2022-12-17T07:31:41;105.80;;;47.17;;
52940;SDS011;62001;53.366;6.636;2022-12-17T07:34:26;94.20;;;43.77;;
52940;SDS011;62001;53.366;6.636;2022-12-17T07:37:10;101.30;;;46.00;;
52940;SDS011;62001;53.366;6.636;2022-12-17T07:39:55;99.97;;;47.07;;
52940;SDS011;62001;53.366;6.636;2022-12-17T07:42:39;101.10;;;45.50;;
52940;SDS011;62001;53.366;6.636;2022-12-17T07:45:23;109.17;;;47.80;;
52940;SDS011;62001;53.366;6.636;2022-12-17T07:48:18;98.60;;;46.90;;
52940;SDS011;62001;53.366;6.636;2022-12-17T07:51:03;93.93;;;45.80;;
52940;SDS011;62001;53.366;6.636;2022-12-17T07:53:47;100.23;;;47.07;;
52940;SDS011;62001;53.366;6.636;2022-12-17T07:56:31;105.50;;;47.83;;
52940;SDS011;62001;53.366;6.636;2022-12-17T07:59:16;105.40;;;49.20;;
52940;SDS011;62001;53.366;6.636;2022-12-17T08:02:00;113.30;;;49.13;;
52940;SDS011;62001;53.366;6.636;2022-12-17T08:04:45;106.07;;;48.13;;
52940;SDS011;62001;53.366;6.636;2022-12-17T08:07:29;109.10;;;49.53;;
52940;SDS011;62001;53.366;6.636;2022-12-17T08:10:13;107.43;;;49.53;;
52940;SDS011;62001;53.366;6.636;2022-12-17T08:12:59;101.70;;;47.03;;
52940;SDS011;62001;53.366;6.636;2022-12-17T08:15:45;109.67;;;49.53;;
52940;SDS011;62001;53.366;6.636;2022-12-17T08:18:30;122.33;;;51.03;;
52940;SDS011;62001;53.366;6.636;2022-12-17T08:21:14;118.83;;;51.10;;
52940;SDS011;62001;53.366;6.636;2022-12-17T08:23:59;122.03;;;50.90;;
52940;SDS011;62001;53.366;6.636;2022-12-17T08:26:43;115.43;;;49.80;;
52940;SDS011;62001;53.366;6.636;2022-12-17T08:29:27;113.33;;;48.80;;
52940;SDS011;62001;53.366;6.636;2022-12-17T08:32:12;116.03;;;48.97;;
52940;SDS011;62001;53.366;6.636;2022-12-17T08:34:56;113.20;;;50.43;;
52940;SDS011;62001;53.366;6.636;2022-12-17T08:37:40;115.77;;;50.73;;
52940;SDS011;62001;53.366;6.636;2022-12-17T08:40:24;118.60;;;48.83;;
52940;SDS011;62001;53.366;6.636;2022-12-17T08:43:08;115.03;;;49.57;;
52940;SDS011;62001;53.366;6.636;2022-12-17T08:45:53;110.30;;;47.57;;
52940;SDS011;62001;53.366;6.636;2022-12-17T08:48:38;112.37;;;50.30;;
52940;SDS011;62001;53.366;6.636;2022-12-17T08:51:22;113.97;;;49.33;;
52940;SDS011;62001;53.366;6.636;2022-12-17T08:54:07;113.07;;;49.43;;
52940;SDS011;62001;53.366;6.636;2022-12-17T08:56:51;109.60;;;47.37;;
52940;SDS011;62001;53.366;6.636;2022-12-17T08:59:36;109.13;;;46.63;;
52940;SDS011;62001;53.366;6.636;2022-12-17T09:02:21;106.87;;;47.30;;
52940;SDS011;62001;53.366;6.636;2022-12-17T09:05:06;111.83;;;47.47;;
52940;SDS011;62001;53.366;6.636;2022-12-17T09:07:57;112.37;;;49.90;;
52940;SDS011;62001;53.366;6.636;2022-12-17T09:10:45;115.87;;;51.20;;
52940;SDS011;62001;53.366;6.636;2022-12-17T09:13:30;108.13;;;47.03;;
52940;SDS011;62001;53.366;6.636;2022-12-17T09:16:14;104.87;;;47.00;;
52940;SDS011;62001;53.366;6.636;2022-12-17T09:18:58;116.60;;;50.17;;
52940;SDS011;62001;53.366;6.636;2022-12-17T09:21:43;107.77;;;46.40;;
52940;SDS011;62001;53.366;6.636;2022-12-17T09:24:27;107.93;;;47.97;;
52940;SDS011;62001;53.366;6.636;2022-12-17T09:27:11;106.00;;;46.47;;
52940;SDS011;62001;53.366;6.636;2022-12-17T09:29:56;102.73;;;46.73;;
52940;SDS011;62001;53.366;6.636;2022-12-17T09:32:40;110.33;;;47.13;;
52940;SDS011;62001;53.366;6.636;2022-12-17T09:35:25;101.93;;;44.77;;
52940;SDS011;62001;53.366;6.636;2022-12-17T09:38:10;110.23;;;46.90;;
52940;SDS011;62001;53.366;6.636;2022-12-17T09:40:55;105.40;;;45.47;;
52940;SDS011;62001;53.366;6.636;2022-12-17T09:46:33;106.27;;;46.73;;
52940;SDS011;62001;53.366;6.636;2022-12-17T09:49:27;114.57;;;47.50;;
52940;SDS011;62001;53.366;6.636;2022-12-17T09:55:19;111.63;;;47.37;;
52940;SDS011;62001;53.366;6.636;2022-12-17T09:58:11;115.10;;;48.20;;
52940;SDS011;62001;53.366;6.636;2022-12-17T10:01:05;111.27;;;46.47;;
52940;SDS011;62001;53.366;6.636;2022-12-17T10:03:58;105.00;;;44.43;;
52940;SDS011;62001;53.366;6.636;2022-12-17T10:06:43;108.77;;;46.37;;
52940;SDS011;62001;53.366;6.636;2022-12-17T10:09:27;117.17;;;46.80;;
52940;SDS011;62001;53.366;6.636;2022-12-17T10:12:14;111.77;;;46.93;;
52940;SDS011;62001;53.366;6.636;2022-12-17T10:15:00;114.50;;;47.50;;
52940;SDS011;62001;53.366;6.636;2022-12-17T10:17:45;108.60;;;45.53;;
52940;SDS011;62001;53.366;6.636;2022-12-17T10:20:36;104.90;;;45.53;;
52940;SDS011;62001;53.366;6.636;2022-12-17T10:23:33;104.63;;;44.40;;
52940;SDS011;62001;53.366;6.636;2022-12-17T10:29:04;108.20;;;46.73;;
52940;SDS011;62001;53.366;6.636;2022-12-17T10:34:59;102.33;;;44.53;;
52940;SDS011;62001;53.366;6.636;2022-12-17T10:37:50;104.33;;;45.63;;
52940;SDS011;62001;53.366;6.636;2022-12-17T10:40:34;102.60;;;44.10;;
52940;SDS011;62001;53.366;6.636;2022-12-17T10:43:32;102.53;;;44.43;;
52940;SDS011;62001;53.366;6.636;2022-12-17T10:46:21;101.87;;;44.50;;
52940;SDS011;62001;53.366;6.636;2022-12-17T10:49:09;107.00;;;46.80;;
52940;SDS011;62001;53.366;6.636;2022-12-17T10:51:58;112.07;;;49.83;;
52940;SDS011;62001;53.366;6.636;2022-12-17T10:55:00;112.00;;;48.23;;
52940;SDS011;62001;53.366;6.636;2022-12-17T10:57:47;110.15;;;47.33;;
52940;SDS011;62001;53.366;6.636;2022-12-17T11:00:33;107.07;;;46.70;;
52940;SDS011;62001;53.366;6.636;2022-12-17T11:06:14;107.37;;;45.87;;
52940;SDS011;62001;53.366;6.636;2022-12-17T11:09:14;107.67;;;47.17;;
52940;SDS011;62001;53.366;6.636;2022-12-17T11:12:08;106.93;;;45.40;;
52940;SDS011;62001;53.366;6.636;2022-12-17T11:14:55;106.47;;;45.93;;
52940;SDS011;62001;53.366;6.636;2022-12-17T11:17:42;115.83;;;48.40;;
52940;SDS011;62001;53.366;6.636;2022-12-17T11:20:33;110.20;;;49.47;;
52940;SDS011;62001;53.366;6.636;2022-12-17T11:23:28;106.40;;;46.00;;
52940;SDS011;62001;53.366;6.636;2022-12-17T11:26:15;112.97;;;49.37;;
52940;SDS011;62001;53.366;6.636;2022-12-17T11:29:02;105.17;;;46.73;;
52940;SDS011;62001;53.366;6.636;2022-12-17T11:37:46;111.17;;;48.37;;
52940;SDS011;62001;53.366;6.636;2022-12-17T11:41:06;104.30;;;48.63;;
52940;SDS011;62001;53.366;6.636;2022-12-17T11:56:51;107.20;;;48.73;;
52940;SDS011;62001;53.366;6.636;2022-12-17T12:02:42;104.30;;;48.23;;
52940;SDS011;62001;53.366;6.636;2022-12-17T12:05:32;100.30;;;46.80;;
52940;SDS011;62001;53.366;6.636;2022-12-17T12:11:47;107.60;;;49.50;;
52940;SDS011;62001;53.366;6.636;2022-12-17T12:24:22;98.70;;;47.67;;
52940;SDS011;62001;53.366;6.636;2022-12-17T12:30:52;98.07;;;46.47;;
52940;SDS011;62001;53.366;6.636;2022-12-17T12:33:47;101.07;;;48.03;;
52940;SDS011;62001;53.366;6.636;2022-12-17T12:36:36;99.57;;;49.00;;
52940;SDS011;62001;53.366;6.636;2022-12-17T12:39:27;96.07;;;48.53;;
52940;SDS011;62001;53.366;6.636;2022-12-17T12:42:36;99.13;;;47.67;;
52940;SDS011;62001;53.366;6.636;2022-12-17T12:48:36;101.27;;;50.43;;
52940;SDS011;62001;53.366;6.636;2022-12-17T12:51:28;104.17;;;48.67;;
52940;SDS011;62001;53.366;6.636;2022-12-17T12:54:20;98.77;;;49.63;;
52940;SDS011;62001;53.366;6.636;2022-12-17T12:57:23;100.53;;;48.03;;
52940;SDS011;62001;53.366;6.636;2022-12-17T13:03:27;106.00;;;49.87;;
52940;SDS011;62001;53.366;6.636;2022-12-17T13:06:25;107.67;;;49.70;;
52940;SDS011;62001;53.366;6.636;2022-12-17T13:17:01;99.00;;;47.17;;
52940;SDS011;62001;53.366;6.636;2022-12-17T13:19:45;96.47;;;46.63;;
52940;SDS011;62001;53.366;6.636;2022-12-17T13:24:47;93.93;;;47.80;;
52940;SDS011;62001;53.366;6.636;2022-12-17T13:29:56;102.07;;;50.00;;
52940;SDS011;62001;53.366;6.636;2022-12-17T13:32:24;100.90;;;49.33;;
52940;SDS011;62001;53.366;6.636;2022-12-17T13:34:59;101.77;;;50.83;;
52940;SDS011;62001;53.366;6.636;2022-12-17T13:37:53;100.47;;;48.30;;
52940;SDS011;62001;53.366;6.636;2022-12-17T13:43:17;94.93;;;48.20;;
52940;SDS011;62001;53.366;6.636;2022-12-17T13:45:45;98.77;;;48.97;;
52940;SDS011;62001;53.366;6.636;2022-12-17T13:48:20;100.67;;;49.90;;
52940;SDS011;62001;53.366;6.636;2022-12-17T13:53:20;95.47;;;46.03;;
52940;SDS011;62001;53.366;6.636;2022-12-17T13:55:50;100.10;;;49.03;;
52940;SDS011;62001;53.366;6.636;2022-12-17T13:58:19;95.97;;;46.80;;
52940;SDS011;62001;53.366;6.636;2022-12-17T14:01:09;94.70;;;47.63;;
52940;SDS011;62001;53.366;6.636;2022-12-17T14:03:36;104.93;;;51.27;;
52940;SDS011;62001;53.366;6.636;2022-12-17T14:06:03;97.83;;;49.37;;
52940;SDS011;62001;53.366;6.636;2022-12-17T14:08:33;103.07;;;50.53;;
52940;SDS011;62001;53.366;6.636;2022-12-17T14:10:59;104.70;;;49.43;;
52940;SDS011;62001;53.366;6.636;2022-12-17T14:13:45;98.53;;;49.90;;
52940;SDS011;62001;53.366;6.636;2022-12-17T14:16:16;105.87;;;50.30;;
52940;SDS011;62001;53.366;6.636;2022-12-17T14:18:44;104.40;;;51.93;;
52940;SDS011;62001;53.366;6.636;2022-12-17T14:21:15;104.63;;;50.90;;
52940;SDS011;62001;53.366;6.636;2022-12-17T14:23:42;112.10;;;51.77;;
52940;SDS011;62001;53.366;6.636;2022-12-17T14:26:10;103.17;;;48.90;;
52940;SDS011;62001;53.366;6.636;2022-12-17T14:28:44;104.97;;;49.80;;
52940;SDS011;62001;53.366;6.636;2022-12-17T14:34:06;113.83;;;51.93;;
52940;SDS011;62001;53.366;6.636;2022-12-17T14:36:38;109.20;;;51.27;;
52940;SDS011;62001;53.366;6.636;2022-12-17T14:39:20;111.07;;;51.23;;
52940;SDS011;62001;53.366;6.636;2022-12-17T14:41:49;118.77;;;52.50;;
52940;SDS011;62001;53.366;6.636;2022-12-17T14:44:34;113.03;;;53.67;;
52940;SDS011;62001;53.366;6.636;2022-12-17T14:52:33;104.90;;;45.58;;
52940;SDS011;62001;53.366;6.636;2022-12-17T14:55:34;115.73;;;51.47;;
52940;SDS011;62001;53.366;6.636;2022-12-17T14:58:17;120.73;;;52.33;;
52940;SDS011;62001;53.366;6.636;2022-12-17T15:03:31;116.50;;;52.53;;
52940;SDS011;62001;53.366;6.636;2022-12-17T15:06:02;118.55;;;52.78;;
52940;SDS011;62001;53.366;6.636;2022-12-17T15:08:32;120.17;;;51.80;;
52940;SDS011;62001;53.366;6.636;2022-12-17T15:10:59;113.63;;;51.70;;
52940;SDS011;62001;53.366;6.636;2022-12-17T15:13:25;117.03;;;52.73;;
52940;SDS011;62001;53.366;6.636;2022-12-17T15:15:51;113.80;;;50.67;;
52940;SDS011;62001;53.366;6.636;2022-12-17T15:18:17;117.57;;;52.67;;
52940;SDS011;62001;53.366;6.636;2022-12-17T15:20:42;115.47;;;52.97;;
52940;SDS011;62001;53.366;6.636;2022-12-17T15:23:12;126.27;;;55.43;;
52940;SDS011;62001;53.366;6.636;2022-12-17T15:25:47;115.97;;;53.40;;
52940;SDS011;62001;53.366;6.636;2022-12-17T15:28:15;131.50;;;55.50;;
52940;SDS011;62001;53.366;6.636;2022-12-17T15:30:42;125.10;;;54.17;;
52940;SDS011;62001;53.366;6.636;2022-12-17T15:33:08;120.87;;;52.20;;
52940;SDS011;62001;53.366;6.636;2022-12-17T15:35:35;115.47;;;51.80;;
52940;SDS011;62001;53.366;6.636;2022-12-17T15:38:02;120.70;;;52.03;;
52940;SDS011;62001;53.366;6.636;2022-12-17T15:40:29;123.77;;;52.77;;
52940;SDS011;62001;53.366;6.636;2022-12-17T15:42:55;128.60;;;54.93;;
52940;SDS011;62001;53.366;6.636;2022-12-17T15:45:43;125.60;;;52.10;;
52940;SDS011;62001;53.366;6.636;2022-12-17T15:48:11;129.90;;;54.27;;
52940;SDS011;62001;53.366;6.636;2022-12-17T15:50:38;128.37;;;54.60;;
52940;SDS011;62001;53.366;6.636;2022-12-17T15:53:04;135.33;;;54.27;;
52940;SDS011;62001;53.366;6.636;2022-12-17T15:55:30;129.23;;;55.27;;
52940;SDS011;62001;53.366;6.636;2022-12-17T15:57:57;141.43;;;52.93;;
52940;SDS011;62001;53.366;6.636;2022-12-17T16:00:23;128.83;;;52.87;;
52940;SDS011;62001;53.366;6.636;2022-12-17T16:02:49;135.80;;;54.60;;
52940;SDS011;62001;53.366;6.636;2022-12-17T16:05:15;130.07;;;53.13;;
52940;SDS011;62001;53.366;6.636;2022-12-17T16:07:41;130.53;;;53.07;;
52940;SDS011;62001;53.366;6.636;2022-12-17T16:10:08;132.07;;;53.50;;
52940;SDS011;62001;53.366;6.636;2022-12-17T16:12:35;131.73;;;54.43;;
52940;SDS011;62001;53.366;6.636;2022-12-17T16:15:01;132.80;;;52.70;;
52940;SDS011;62001;53.366;6.636;2022-12-17T16:17:27;139.57;;;54.67;;
52940;SDS011;62001;53.366;6.636;2022-12-17T16:19:53;129.80;;;53.00;;
52940;SDS011;62001;53.366;6.636;2022-12-17T16:22:19;134.63;;;51.67;;
52940;SDS011;62001;53.366;6.636;2022-12-17T16:24:45;134.77;;;52.50;;
52940;SDS011;62001;53.366;6.636;2022-12-17T16:27:12;136.73;;;52.07;;
52940;SDS011;62001;53.366;6.636;2022-12-17T16:29:39;135.87;;;54.07;;
52940;SDS011;62001;53.366;6.636;2022-12-17T16:32:05;142.73;;;58.13;;
52940;SDS011;62001;53.366;6.636;2022-12-17T16:34:31;148.77;;;60.20;;
52940;SDS011;62001;53.366;6.636;2022-12-17T16:36:57;149.20;;;60.93;;
52940;SDS011;62001;53.366;6.636;2022-12-17T16:39:25;143.60;;;54.80;;
52940;SDS011;62001;53.366;6.636;2022-12-17T16:41:51;142.27;;;54.03;;
52940;SDS011;62001;53.366;6.636;2022-12-17T16:44:16;140.00;;;53.27;;
52940;SDS011;62001;53.366;6.636;2022-12-17T16:46:43;151.10;;;55.37;;
52940;SDS011;62001;53.366;6.636;2022-12-17T16:49:28;150.90;;;53.77;;
52940;SDS011;62001;53.366;6.636;2022-12-17T16:51:54;146.53;;;55.30;;
52940;SDS011;62001;53.366;6.636;2022-12-17T16:54:24;151.63;;;55.87;;
52940;SDS011;62001;53.366;6.636;2022-12-17T16:56:52;145.63;;;54.53;;
52940;SDS011;62001;53.366;6.636;2022-12-17T16:59:18;149.77;;;54.00;;
52940;SDS011;62001;53.366;6.636;2022-12-17T17:01:45;136.87;;;51.53;;
52940;SDS011;62001;53.366;6.636;2022-12-17T17:04:13;146.83;;;54.00;;
52940;SDS011;62001;53.366;6.636;2022-12-17T17:06:42;145.43;;;51.60;;
52940;SDS011;62001;53.366;6.636;2022-12-17T17:09:12;154.63;;;53.00;;
52940;SDS011;62001;53.366;6.636;2022-12-17T17:11:40;146.77;;;51.27;;
52940;SDS011;62001;53.366;6.636;2022-12-17T17:14:06;150.80;;;51.37;;
52940;SDS011;62001;53.366;6.636;2022-12-17T17:16:33;157.43;;;52.87;;
52940;SDS011;62001;53.366;6.636;2022-12-17T17:18:59;153.37;;;50.90;;
52940;SDS011;62001;53.366;6.636;2022-12-17T17:21:35;163.20;;;53.30;;
52940;SDS011;62001;53.366;6.636;2022-12-17T17:24:05;153.93;;;55.20;;
52940;SDS011;62001;53.366;6.636;2022-12-17T17:26:34;162.83;;;54.90;;